createdAt,value
2023-05-08T00:01:43.095Z,13.58
2023-05-08T00:04:11.961Z,13.52
2023-05-08T00:06:41.747Z,13.18
2023-05-08T00:09:11.149Z,13.02
2023-05-08T00:11:40.286Z,12.91
2023-05-08T00:14:09.073Z,12.96
2023-05-08T00:16:37.842Z,12.95
2023-05-08T00:19:06.778Z,12.84
2023-05-08T00:21:35.446Z,12.81
2023-05-08T00:24:05.740Z,12.93
2023-05-08T00:26:34.441Z,13.00
2023-05-08T00:29:05.041Z,13.07
2023-05-08T00:31:34.793Z,12.99
2023-05-08T00:34:03.244Z,12.94
2023-05-08T00:36:32.399Z,12.95
2023-05-08T00:39:01.017Z,12.93
2023-05-08T00:41:31.127Z,12.83
2023-05-08T00:43:59.956Z,12.81
2023-05-08T00:46:28.912Z,12.78
2023-05-08T00:48:57.984Z,12.70
2023-05-08T00:51:27.012Z,12.43
2023-05-08T00:53:55.917Z,12.31
2023-05-08T00:56:26.080Z,12.20
2023-05-08T00:58:56.342Z,12.18
2023-05-08T01:01:25.776Z,12.22
2023-05-08T01:03:55.169Z,12.23
2023-05-08T01:06:23.892Z,12.19
2023-05-08T01:08:52.471Z,12.26
2023-05-08T01:11:26.217Z,12.13
2023-05-08T01:14:13.149Z,12.17
2023-05-08T01:16:47.743Z,12.27
2023-05-08T01:19:56.572Z,12.25
2023-05-08T01:22:45.451Z,12.37
2023-05-08T01:25:41.859Z,12.47
2023-05-08T01:28:27.670Z,12.46
2023-05-08T01:31:18.630Z,12.42
2023-05-08T01:33:55.976Z,12.43
2023-05-08T01:36:31.398Z,12.35
2023-05-08T01:39:11.915Z,12.07
2023-05-08T01:41:42.440Z,12.00
2023-05-08T01:44:15.097Z,12.00
2023-05-08T01:46:46.724Z,12.05
2023-05-08T01:49:25.433Z,12.10
2023-05-08T01:52:01.409Z,12.09
2023-05-08T01:54:42.371Z,12.12
2023-05-08T01:57:13.520Z,12.00
2023-05-08T01:59:44.051Z,11.82
2023-05-08T02:02:14.106Z,11.86
2023-05-08T02:04:45.938Z,11.98
2023-05-08T02:07:15.256Z,11.99
2023-05-08T02:09:45.232Z,11.83
2023-05-08T02:12:17.594Z,11.90
2023-05-08T02:14:49.389Z,11.83
2023-05-08T02:17:19.350Z,11.72
2023-05-08T02:19:51.842Z,11.70
2023-05-08T02:22:22.951Z,11.83
2023-05-08T02:24:55.392Z,11.87
2023-05-08T02:27:26.972Z,11.84
2023-05-08T02:29:57.668Z,11.75
2023-05-08T02:32:28.075Z,11.78
2023-05-08T02:35:03.662Z,11.75
2023-05-08T02:37:34.273Z,11.70
2023-05-08T02:40:05.480Z,11.77
2023-05-08T02:42:34.927Z,11.76
2023-05-08T02:45:04.874Z,11.64
2023-05-08T02:47:47.584Z,11.58
2023-05-08T02:50:22.839Z,11.53
2023-05-08T02:52:55.536Z,11.30
2023-05-08T02:55:34.183Z,11.42
2023-05-08T02:58:15.768Z,11.34
2023-05-08T03:00:50.161Z,11.24
2023-05-08T03:03:25.909Z,11.22
2023-05-08T03:05:58.857Z,11.03
2023-05-08T03:08:31.911Z,10.99
2023-05-08T03:11:06.899Z,10.90
2023-05-08T03:13:39.976Z,11.00
2023-05-08T03:16:16.317Z,11.05
2023-05-08T03:18:50.915Z,10.96
2023-05-08T03:21:23.893Z,10.91
2023-05-08T03:23:55.284Z,10.77
2023-05-08T03:26:24.406Z,10.93
2023-05-08T03:28:55.226Z,10.90
2023-05-08T03:31:29.438Z,10.81
2023-05-08T03:33:58.749Z,10.81
2023-05-08T03:36:30.111Z,10.89
2023-05-08T03:39:01.104Z,10.82
2023-05-08T03:41:30.124Z,10.79
2023-05-08T03:43:59.690Z,10.76
2023-05-08T03:46:28.586Z,10.83
2023-05-08T03:49:00.613Z,11.01
2023-05-08T03:51:32.510Z,11.07
2023-05-08T03:54:01.210Z,11.03
2023-05-08T03:56:30.212Z,11.02
2023-05-08T03:59:16.996Z,11.07
2023-05-08T04:01:55.564Z,11.09
2023-05-08T04:04:34.740Z,11.05
2023-05-08T04:07:11.666Z,10.89
2023-05-08T04:09:52.813Z,10.89
2023-05-08T04:12:24.147Z,10.75
2023-05-08T04:14:57.201Z,10.84
2023-05-08T04:17:35.914Z,10.83
2023-05-08T04:20:08.140Z,10.73
2023-05-08T04:22:41.717Z,10.64
2023-05-08T04:25:14.494Z,10.62
2023-05-08T04:27:45.070Z,10.45
2023-05-08T04:30:15.739Z,10.41
2023-05-08T04:32:46.975Z,10.48
2023-05-08T04:35:17.196Z,10.37
2023-05-08T04:37:49.258Z,10.57
2023-05-08T04:40:18.934Z,10.78
2023-05-08T04:42:48.271Z,10.82
2023-05-08T04:45:19.948Z,10.83
2023-05-08T04:47:48.842Z,10.83
2023-05-08T04:50:18.430Z,11.09
2023-05-08T04:52:48.248Z,11.13
2023-05-08T04:55:17.686Z,11.17
2023-05-08T04:57:46.849Z,11.23
2023-05-08T05:00:16.997Z,11.24
2023-05-08T05:02:47.707Z,11.16
2023-05-08T05:05:16.704Z,11.15
2023-05-08T05:07:45.205Z,11.41
2023-05-08T05:10:15.472Z,11.25
2023-05-08T05:12:44.416Z,11.17
2023-05-08T05:15:14.400Z,11.25
2023-05-08T05:17:43.758Z,11.23
2023-05-08T05:20:14.198Z,11.42
2023-05-08T05:22:43.012Z,11.50
2023-05-08T05:25:12.571Z,11.35
2023-05-08T05:27:43.165Z,11.48
2023-05-08T05:30:13.629Z,11.59
2023-05-08T05:32:43.501Z,11.55
2023-05-08T05:35:12.876Z,11.75
2023-05-08T05:37:42.584Z,12.11
2023-05-08T05:40:13.328Z,12.37
2023-05-08T05:42:49.073Z,12.63
2023-05-08T05:45:18.473Z,12.81
2023-05-08T05:47:50.413Z,13.01
2023-05-08T05:50:22.593Z,12.71
2023-05-08T05:52:52.060Z,12.59
2023-05-08T05:55:22.199Z,12.57
2023-05-08T05:57:52.602Z,12.64
2023-05-08T06:00:22.400Z,12.84
2023-05-08T06:02:55.581Z,12.95
2023-05-08T06:05:25.144Z,12.91
2023-05-08T06:07:54.234Z,13.07
2023-05-08T06:10:23.199Z,13.23
2023-05-08T06:12:53.625Z,13.79
2023-05-08T06:15:23.592Z,14.37
2023-05-08T06:17:52.846Z,15.14
2023-05-08T06:20:21.551Z,15.84
2023-05-08T06:22:50.380Z,16.49
2023-05-08T06:25:19.869Z,17.31
2023-05-08T06:27:48.496Z,17.43
2023-05-08T06:30:18.230Z,17.75
2023-05-08T06:32:46.494Z,17.49
2023-05-08T06:35:15.904Z,16.80
2023-05-08T06:37:44.509Z,16.92
2023-05-08T06:40:15.027Z,17.27
2023-05-08T06:42:43.496Z,17.51
2023-05-08T06:45:13.761Z,17.02
2023-05-08T06:47:43.648Z,16.18
2023-05-08T06:50:12.835Z,15.91
2023-05-08T06:52:42.327Z,15.67
2023-05-08T06:55:11.368Z,15.65
2023-05-08T06:57:40.166Z,15.65
2023-05-08T07:00:10.206Z,15.76
2023-05-08T07:02:38.941Z,15.93
2023-05-08T07:05:10.360Z,16.09
2023-05-08T07:07:38.881Z,15.89
2023-05-08T07:10:08.531Z,15.96
2023-05-08T07:12:36.854Z,16.20
2023-05-08T07:15:17.929Z,16.38
2023-05-08T07:17:53.520Z,16.47
2023-05-08T07:20:24.627Z,16.55
2023-05-08T07:22:53.462Z,16.33
2023-05-08T07:25:22.075Z,16.22
2023-05-08T07:27:50.787Z,15.71
2023-05-08T07:30:19.370Z,15.70
2023-05-08T07:32:48.115Z,15.76
2023-05-08T07:35:18.286Z,15.76
2023-05-08T07:37:48.578Z,15.82
2023-05-08T07:40:17.282Z,16.07
2023-05-08T07:42:46.836Z,16.22
2023-05-08T07:45:16.421Z,15.91
2023-05-08T07:47:52.391Z,16.01
2023-05-08T07:50:22.228Z,15.65
2023-05-08T07:52:52.709Z,15.56
2023-05-08T07:55:22.270Z,15.67
2023-05-08T07:57:50.965Z,15.56
2023-05-08T08:00:20.718Z,15.47
2023-05-08T08:02:49.514Z,15.48
2023-05-08T08:05:18.305Z,15.74
2023-05-08T08:07:46.969Z,15.59
2023-05-08T08:10:16.978Z,15.11
2023-05-08T08:12:45.665Z,15.46
2023-05-08T08:15:14.460Z,15.67
2023-05-08T08:17:43.263Z,15.88
2023-05-08T08:20:12.577Z,16.45
2023-05-08T08:22:41.165Z,16.14
2023-05-08T08:25:10.554Z,16.23
2023-05-08T08:27:41.280Z,16.44
2023-05-08T08:30:17.419Z,16.98
2023-05-08T08:32:48.428Z,17.02
2023-05-08T08:35:17.684Z,17.01
2023-05-08T08:37:46.674Z,16.65
2023-05-08T08:40:15.369Z,16.83
2023-05-08T08:42:45.111Z,16.75
2023-05-08T08:45:14.313Z,16.93
2023-05-08T08:47:46.707Z,17.38
2023-05-08T08:50:16.336Z,17.33
2023-05-08T08:52:54.498Z,17.04
2023-05-08T08:55:26.697Z,17.08
2023-05-08T08:58:08.656Z,16.68
2023-05-08T09:00:39.159Z,16.91
2023-05-08T09:03:08.694Z,17.07
2023-05-08T09:05:38.368Z,17.45
2023-05-08T09:08:08.225Z,17.41
2023-05-08T09:10:37.262Z,18.16
2023-05-08T09:13:07.504Z,18.64
2023-05-08T09:15:36.225Z,18.06
2023-05-08T09:18:05.738Z,18.10
2023-05-08T09:20:34.604Z,18.68
2023-05-08T09:23:03.768Z,18.38
2023-05-08T09:25:44.786Z,18.53
2023-05-08T09:28:23.069Z,18.93
2023-05-08T09:30:53.496Z,19.13
2023-05-08T09:33:23.443Z,18.94
2023-05-08T09:35:52.317Z,19.37
2023-05-08T09:38:42.166Z,19.97
2023-05-08T09:41:13.391Z,20.34
2023-05-08T09:43:44.708Z,20.08
2023-05-08T09:46:25.272Z,19.19
2023-05-08T09:48:55.873Z,19.80
2023-05-08T09:51:26.421Z,19.81
2023-05-08T09:53:56.520Z,20.51
2023-05-08T09:56:36.172Z,19.82
2023-05-08T09:59:23.446Z,18.92
2023-05-08T10:01:52.241Z,19.23
2023-05-08T10:04:32.634Z,20.28
2023-05-08T10:07:01.835Z,19.65
2023-05-08T10:09:39.300Z,20.01
2023-05-08T10:12:18.468Z,20.44
2023-05-08T10:14:48.108Z,20.57
2023-05-08T10:17:22.009Z,20.71
2023-05-08T10:19:55.393Z,21.10
2023-05-08T10:22:26.310Z,20.99
2023-05-08T10:24:58.961Z,20.38
2023-05-08T10:27:36.477Z,19.85
2023-05-08T10:30:08.021Z,20.03
2023-05-08T10:32:43.982Z,20.85
2023-05-08T10:35:13.606Z,20.89
2023-05-08T10:37:43.603Z,20.73
2023-05-08T10:40:13.262Z,21.15
2023-05-08T10:42:42.411Z,20.88
2023-05-08T10:45:13.970Z,21.41
2023-05-08T10:48:00.116Z,21.72
2023-05-08T10:50:43.602Z,21.32
2023-05-08T10:53:18.521Z,21.50
2023-05-08T10:55:52.303Z,21.33
2023-05-08T10:58:32.371Z,22.03
2023-05-08T11:01:18.382Z,21.99
2023-05-08T11:03:51.689Z,22.07
2023-05-08T11:06:44.228Z,21.83
2023-05-08T11:09:23.001Z,21.00
2023-05-08T11:12:01.897Z,21.19
2023-05-08T11:14:32.192Z,21.57
2023-05-08T11:17:10.730Z,21.56
2023-05-08T11:19:40.434Z,21.63
2023-05-08T11:22:24.246Z,21.30
2023-05-08T11:25:06.901Z,21.45
2023-05-08T11:27:42.761Z,20.94
2023-05-08T11:30:36.996Z,20.98
2023-05-08T11:33:34.413Z,19.76
2023-05-08T11:36:13.180Z,19.42
2023-05-08T11:38:43.658Z,19.36
2023-05-08T11:41:22.667Z,19.84
2023-05-08T11:44:20.547Z,20.04
2023-05-08T11:46:54.902Z,20.12
2023-05-08T11:49:29.758Z,20.10
2023-05-08T11:52:00.940Z,20.22
2023-05-08T11:54:32.146Z,19.58
2023-05-08T11:57:02.051Z,19.38
2023-05-08T11:59:35.992Z,19.45
2023-05-08T12:02:09.083Z,19.34
2023-05-08T12:04:47.657Z,19.86
2023-05-08T12:07:17.477Z,19.28
2023-05-08T12:09:48.708Z,19.20
2023-05-08T12:12:17.435Z,19.43
2023-05-08T12:14:50.089Z,19.03
2023-05-08T12:17:19.974Z,18.96
2023-05-08T12:19:49.731Z,18.58
2023-05-08T12:22:18.466Z,19.01
2023-05-08T12:24:47.196Z,18.27
2023-05-08T12:27:15.897Z,18.28
2023-05-08T12:29:46.840Z,18.09
2023-05-08T12:32:16.017Z,18.27
2023-05-08T12:34:44.839Z,18.45
2023-05-08T12:37:25.752Z,18.30
2023-05-08T12:39:54.140Z,18.23
2023-05-08T12:42:22.897Z,18.40
2023-05-08T12:44:54.750Z,18.41
2023-05-08T12:47:23.468Z,18.09
2023-05-08T12:49:52.745Z,18.34
2023-05-08T12:52:25.015Z,18.50
2023-05-08T12:54:54.632Z,18.47
2023-05-08T12:57:23.553Z,18.76
2023-05-08T12:59:51.894Z,18.81
2023-05-08T13:02:23.882Z,18.90
2023-05-08T13:04:56.927Z,18.88
2023-05-08T13:07:33.187Z,18.90
2023-05-08T13:10:04.636Z,18.85
2023-05-08T13:12:33.675Z,18.94
2023-05-08T13:15:04.760Z,18.94
2023-05-08T13:17:33.489Z,19.04
2023-05-08T13:20:05.196Z,19.08
2023-05-08T13:22:35.854Z,19.10
2023-05-08T13:25:05.179Z,19.02
2023-05-08T13:27:33.893Z,19.00
2023-05-08T13:30:02.393Z,19.02
2023-05-08T13:32:31.144Z,18.85
2023-05-08T13:35:01.132Z,18.82
2023-05-08T13:37:30.010Z,18.93
2023-05-08T13:40:00.053Z,18.68
2023-05-08T13:42:28.695Z,18.83
2023-05-08T13:44:57.338Z,18.88
2023-05-08T13:47:25.968Z,18.96
2023-05-08T13:49:54.768Z,18.66
2023-05-08T13:52:23.339Z,19.00
2023-05-08T13:54:52.096Z,18.96
2023-05-08T13:57:22.001Z,18.92
2023-05-08T13:59:50.740Z,18.71
2023-05-08T14:02:19.786Z,18.50
2023-05-08T14:04:48.558Z,18.56
2023-05-08T14:07:18.542Z,18.77
2023-05-08T14:09:47.822Z,18.77
2023-05-08T14:12:16.761Z,18.61
2023-05-08T14:14:46.514Z,18.62
2023-05-08T14:17:15.145Z,18.45
2023-05-08T14:19:43.874Z,18.18
2023-05-08T14:22:12.720Z,18.05
2023-05-08T14:24:41.684Z,18.16
2023-05-08T14:27:10.308Z,18.29
2023-05-08T14:29:38.746Z,18.37
2023-05-08T14:32:09.380Z,18.28
2023-05-08T14:34:38.030Z,18.43
2023-05-08T14:37:06.723Z,18.26
2023-05-08T14:39:35.139Z,18.25
2023-05-08T14:44:35.686Z,18.25
2023-05-08T14:47:04.384Z,18.37
2023-05-08T14:52:06.676Z,18.60
2023-05-08T14:54:36.213Z,18.66
2023-05-08T14:57:05.047Z,18.66
2023-05-08T14:59:33.731Z,18.61
2023-05-08T15:02:02.494Z,18.93
2023-05-08T15:04:30.942Z,19.09
2023-05-08T15:07:01.013Z,19.23
2023-05-08T15:09:30.039Z,19.63
2023-05-08T15:11:58.696Z,19.19
2023-05-08T15:14:27.661Z,18.97
2023-05-08T15:16:56.441Z,18.66
2023-05-08T15:19:24.955Z,18.92
2023-05-08T15:21:53.704Z,19.09
2023-05-08T15:24:23.403Z,19.33
2023-05-08T15:26:52.437Z,19.35
2023-05-08T15:29:21.090Z,19.36
2023-05-08T15:31:49.866Z,18.98
2023-05-08T15:34:18.543Z,18.68
2023-05-08T15:36:47.697Z,18.83
2023-05-08T15:39:16.806Z,19.02
2023-05-08T15:41:47.260Z,18.99
2023-05-08T15:44:15.734Z,19.04
2023-05-08T15:46:44.434Z,19.00
2023-05-08T15:49:13.112Z,19.12
2023-05-08T15:51:41.840Z,19.32
2023-05-08T15:54:10.768Z,19.71
2023-05-08T15:56:39.450Z,20.43
2023-05-08T15:59:10.101Z,20.57
2023-05-08T16:01:40.894Z,20.31
2023-05-08T16:04:10.161Z,20.02
2023-05-08T16:06:38.814Z,19.89
2023-05-08T16:09:07.741Z,19.70
2023-05-08T16:11:36.624Z,19.96
2023-05-08T16:14:05.310Z,20.54
2023-05-08T16:16:35.475Z,20.62
2023-05-08T16:19:04.168Z,20.08
2023-05-08T16:21:32.929Z,20.00
2023-05-08T16:24:01.287Z,19.93
2023-05-08T16:26:30.100Z,19.74
2023-05-08T16:28:59.027Z,19.23
2023-05-08T16:31:27.570Z,18.64
2023-05-08T16:33:58.035Z,18.58
2023-05-08T16:36:26.754Z,18.31
2023-05-08T16:38:55.568Z,18.02
2023-05-08T16:41:24.984Z,17.84
2023-05-08T16:43:53.853Z,17.86
2023-05-08T16:46:29.816Z,17.70
2023-05-08T16:49:00.776Z,17.32
2023-05-08T16:51:29.484Z,17.21
2023-05-08T16:53:58.199Z,17.15
2023-05-08T16:56:27.150Z,17.15
2023-05-08T16:58:55.783Z,17.13
2023-05-08T17:01:24.510Z,17.10
2023-05-08T17:03:53.182Z,17.08
2023-05-08T17:06:23.174Z,16.99
2023-05-08T17:08:51.734Z,17.03
2023-05-08T17:11:20.396Z,16.91
2023-05-08T17:13:49.006Z,16.72
2023-05-08T17:16:19.780Z,16.58
2023-05-08T17:18:48.987Z,16.51
2023-05-08T17:21:17.602Z,16.55
2023-05-08T17:23:47.594Z,16.62
2023-05-08T17:26:16.087Z,16.56
2023-05-08T17:28:44.818Z,16.49
2023-05-08T17:31:14.871Z,16.46
2023-05-08T17:33:43.633Z,16.38
2023-05-08T17:36:12.440Z,16.33
2023-05-08T17:38:46.008Z,16.30
2023-05-08T17:41:16.228Z,16.27
2023-05-08T17:43:45.181Z,16.09
2023-05-08T17:46:15.097Z,15.98
2023-05-08T17:48:43.819Z,15.82
2023-05-08T17:51:14.068Z,15.79
2023-05-08T17:53:42.528Z,15.78
2023-05-08T17:56:11.253Z,15.76
2023-05-08T17:58:41.198Z,15.71
2023-05-08T18:01:10.082Z,15.61
2023-05-08T18:03:38.437Z,15.56
2023-05-08T18:06:07.086Z,15.53
2023-05-08T18:08:35.891Z,15.30
2023-05-08T18:11:04.585Z,15.25
2023-05-08T18:13:34.798Z,15.30
2023-05-08T18:16:04.503Z,15.16
2023-05-08T18:18:33.120Z,15.08
2023-05-08T18:21:01.988Z,15.00
2023-05-08T18:23:31.182Z,15.00
2023-05-08T18:25:59.880Z,14.86
2023-05-08T18:28:28.751Z,14.81
2023-05-08T18:30:57.549Z,14.69
2023-05-08T18:33:27.585Z,14.59
2023-05-08T18:35:57.119Z,14.53
2023-05-08T18:38:25.768Z,14.39
2023-05-08T18:40:54.017Z,14.26
2023-05-08T18:43:22.654Z,14.28
2023-05-08T18:45:50.965Z,14.23
2023-05-08T18:48:19.634Z,14.19
2023-05-08T18:50:49.625Z,14.22
2023-05-08T18:53:18.923Z,14.17
2023-05-08T18:55:47.624Z,14.06
2023-05-08T18:58:16.248Z,14.00
2023-05-08T19:00:44.856Z,13.88
2023-05-08T19:03:13.847Z,13.82
2023-05-08T19:05:42.894Z,13.74
2023-05-08T19:08:13.177Z,13.68
2023-05-08T19:10:41.856Z,13.62
2023-05-08T19:13:10.472Z,13.61
2023-05-08T19:15:39.433Z,13.64
2023-05-08T19:18:09.243Z,13.57
2023-05-08T19:20:38.045Z,13.46
2023-05-08T19:23:07.017Z,13.37
2023-05-08T19:25:37.076Z,13.24
2023-05-08T19:28:06.477Z,13.13
2023-05-08T19:30:35.044Z,13.12
2023-05-08T19:33:03.688Z,13.16
2023-05-08T19:35:32.646Z,13.11
2023-05-08T19:38:01.545Z,13.15
2023-05-08T19:40:30.130Z,13.15
2023-05-08T19:43:01.032Z,13.11
2023-05-08T19:45:29.815Z,13.10
2023-05-08T19:47:58.548Z,13.15
2023-05-08T19:50:27.482Z,13.13
2023-05-08T19:52:56.155Z,13.10
2023-05-08T19:55:24.977Z,13.05
2023-05-08T19:57:53.928Z,12.96
2023-05-08T20:00:24.634Z,12.85
2023-05-08T20:02:53.450Z,12.71
2023-05-08T20:05:23.670Z,12.72
2023-05-08T20:07:52.087Z,12.74
2023-05-08T20:10:20.782Z,12.76
2023-05-08T20:12:49.532Z,12.78
2023-05-08T20:15:18.384Z,12.79
2023-05-08T20:17:48.218Z,12.63
2023-05-08T20:20:17.025Z,12.56
2023-05-08T20:22:46.365Z,12.46
2023-05-08T20:25:15.142Z,12.41
2023-05-08T20:27:43.883Z,12.36
2023-05-08T20:30:13.851Z,12.33
2023-05-08T20:32:42.450Z,12.22
2023-05-08T20:35:13.930Z,12.19
2023-05-08T20:37:46.139Z,12.18
2023-05-08T20:40:15.716Z,12.08
2023-05-08T20:42:44.836Z,12.09
2023-05-08T20:45:13.560Z,12.05
2023-05-08T20:47:42.298Z,12.12
2023-05-08T20:50:12.458Z,12.27
2023-05-08T20:52:42.576Z,12.37
2023-05-08T20:55:12.019Z,12.47
2023-05-08T20:57:40.958Z,12.51
2023-05-08T21:00:11.178Z,12.54
2023-05-08T21:02:42.116Z,12.56
2023-05-08T21:05:12.657Z,12.56
2023-05-08T21:07:42.423Z,12.67
2023-05-08T21:10:11.940Z,12.69
2023-05-08T21:12:40.783Z,12.68
2023-05-08T21:15:10.316Z,12.59
2023-05-08T21:17:39.093Z,12.56
2023-05-08T21:20:09.351Z,12.56
2023-05-08T21:22:39.354Z,12.59
2023-05-08T21:25:16.544Z,12.64
2023-05-08T21:27:45.282Z,12.53
2023-05-08T21:30:16.552Z,12.53
2023-05-08T21:32:46.461Z,12.52
2023-05-08T21:35:16.273Z,12.51
2023-05-08T21:37:46.978Z,12.49
2023-05-08T21:40:15.817Z,12.51
2023-05-08T21:42:44.190Z,12.51
2023-05-08T21:45:13.560Z,12.50
2023-05-08T21:47:42.420Z,12.46
2023-05-08T21:50:12.061Z,12.42
2023-05-08T21:52:40.638Z,12.37
2023-05-08T21:55:11.909Z,12.34
2023-05-08T21:57:40.339Z,12.36
2023-05-08T22:00:10.566Z,12.34
2023-05-08T22:02:48.468Z,12.31
2023-05-08T22:05:18.440Z,12.20
2023-05-08T22:07:47.581Z,12.20
2023-05-08T22:10:17.370Z,12.09
2023-05-08T22:12:46.246Z,12.03
2023-05-08T22:15:28.327Z,11.98
2023-05-08T22:17:58.249Z,12.00
2023-05-08T22:20:27.283Z,11.98
2023-05-08T22:22:56.137Z,11.89
2023-05-08T22:25:26.878Z,11.89
2023-05-08T22:27:55.541Z,11.89
2023-05-08T22:30:24.252Z,11.94
2023-05-08T22:32:58.423Z,11.92
2023-05-08T22:35:28.636Z,11.90
2023-05-08T22:37:58.406Z,11.87
2023-05-08T22:40:29.375Z,11.85
2023-05-08T22:42:58.923Z,11.81
2023-05-08T22:45:28.442Z,11.81
2023-05-08T22:47:57.378Z,11.69
2023-05-08T22:50:26.122Z,11.67
2023-05-08T22:52:54.581Z,11.64
2023-05-08T22:55:23.398Z,11.61
2023-05-08T22:57:53.469Z,11.56
2023-05-08T23:00:22.557Z,11.52
2023-05-08T23:02:51.309Z,11.51
2023-05-08T23:05:19.903Z,11.42
2023-05-08T23:07:48.608Z,11.49
2023-05-08T23:10:17.729Z,11.51
2023-05-08T23:12:46.176Z,11.47
2023-05-08T23:15:16.389Z,11.50
2023-05-08T23:17:45.300Z,11.58
2023-05-08T23:20:14.538Z,11.64
2023-05-08T23:22:43.279Z,11.68
2023-05-08T23:25:13.172Z,11.67
2023-05-08T23:27:42.390Z,11.75
2023-05-08T23:30:13.482Z,11.77
2023-05-08T23:32:43.636Z,11.79
2023-05-08T23:35:13.077Z,11.77
2023-05-08T23:37:41.842Z,11.76
2023-05-08T23:40:11.530Z,11.75
2023-05-08T23:42:41.011Z,11.72
2023-05-08T23:45:11.211Z,11.66
2023-05-08T23:47:40.317Z,11.66
2023-05-08T23:50:11.296Z,11.64
2023-05-08T23:52:40.137Z,11.67
2023-05-08T23:55:10.409Z,11.70
2023-05-08T23:57:39.480Z,11.64
